Terminal Aerodrome Forecast
Issued by NWS Cleveland, OH

Home | Current Version | Previous Version | Graphics & Text | Print | Product List | Glossary On
Versions: 1 2 3 4 5 6 7 8 9 10 11 12 13 14 15 16 17
000
FTUS41 KCLE 280900 AAA
TAFMFD
TAF AMD
KMFD 280941Z 2810/2906 00000KT 3SM BR FEW030
     FM281100 00000KT 3SM BR BKN020
     FM281400 02006KT P6SM BKN020
     FM281800 01006KT P6SM FEW030
     FM282300 VRB03KT P6SM SCT250=

USA.gov is the U.S. government's official web portal to all federal, state and local government web resources and services.